Terminal Aerodrome Forecast
Issued by NWS

Home | Current Version | Previous Version | Text Only | Print | Product List | Glossary On
Versions: 1 2 3 4 5 6 7 8 9 10 11 12 13 14 15 16
442
FTUS43 KAPX 291314 AAA
TAFTVC
TAF AMD
KTVC 291314Z 2913/3012 04004KT P6SM VCSH OVC060
     FM291500 05004KT P6SM OVC080
     FM292000 02008KT P6SM OVC120
     FM300100 03004KT P6SM BKN100
     FM300200 VRB03KT P6SM SCT110=

USA.gov is the U.S. government's official web portal to all federal, state and local government web resources and services.